createdAt,value
2022-08-24T00:01:57.188Z,23.70
2022-08-24T00:04:25.755Z,23.70
2022-08-24T00:06:54.390Z,23.60
2022-08-24T00:09:22.519Z,23.60
2022-08-24T00:11:52.048Z,23.60
2022-08-24T00:14:20.752Z,23.60
2022-08-24T00:16:48.873Z,23.50
2022-08-24T00:19:17.441Z,23.50
2022-08-24T00:21:45.555Z,23.50
2022-08-24T00:24:14.626Z,23.50
2022-08-24T00:26:42.891Z,23.60
2022-08-24T00:29:12.912Z,23.50
2022-08-24T00:31:41.590Z,23.50
2022-08-24T00:34:10.526Z,23.50
2022-08-24T00:36:38.673Z,23.50
2022-08-24T00:39:07.974Z,23.50
2022-08-24T00:41:39.223Z,23.40
2022-08-24T00:44:07.517Z,23.40
2022-08-24T00:46:45.187Z,23.50
2022-08-24T00:49:27.967Z,23.50
2022-08-24T00:52:04.546Z,23.40
2022-08-24T00:54:35.123Z,23.30
2022-08-24T00:57:07.955Z,23.30
2022-08-24T00:59:40.793Z,23.10
2022-08-24T01:02:19.889Z,23.10
2022-08-24T01:04:53.393Z,23.00
2022-08-24T01:07:23.075Z,22.90
2022-08-24T01:09:52.195Z,22.80
2022-08-24T01:12:21.020Z,22.80
2022-08-24T01:14:49.523Z,22.70
2022-08-24T01:17:38.855Z,22.70
2022-08-24T01:20:11.036Z,22.70
2022-08-24T01:22:53.457Z,22.70
2022-08-24T01:25:23.982Z,22.70
2022-08-24T01:27:52.925Z,22.70
2022-08-24T01:30:21.968Z,22.60
2022-08-24T01:33:06.969Z,22.60
2022-08-24T01:35:36.477Z,22.60
2022-08-24T01:38:09.821Z,22.50
2022-08-24T01:40:45.708Z,22.50
2022-08-24T01:43:15.058Z,22.40
2022-08-24T01:45:43.386Z,22.40
2022-08-24T01:48:11.778Z,22.40
2022-08-24T01:50:39.835Z,22.30
2022-08-24T01:53:10.859Z,22.30
2022-08-24T01:55:41.556Z,22.30
2022-08-24T01:58:10.200Z,22.40
2022-08-24T02:00:38.835Z,22.40
2022-08-24T02:03:07.248Z,22.40
2022-08-24T02:05:36.519Z,22.60
2022-08-24T02:08:05.176Z,22.60
2022-08-24T02:10:33.759Z,22.60
2022-08-24T02:13:04.934Z,22.60
2022-08-24T02:15:36.452Z,22.60
2022-08-24T02:18:05.216Z,22.60
2022-08-24T02:20:33.956Z,22.70
2022-08-24T02:23:02.284Z,22.60
2022-08-24T02:25:30.970Z,22.60
2022-08-24T02:27:59.786Z,22.50
2022-08-24T02:30:29.871Z,22.50
2022-08-24T02:32:59.047Z,22.40
2022-08-24T02:35:28.528Z,22.30
2022-08-24T02:37:57.109Z,22.20
2022-08-24T02:40:25.482Z,22.20
2022-08-24T02:42:53.998Z,22.10
2022-08-24T02:45:23.877Z,22.10
2022-08-24T02:47:53.723Z,22.20
2022-08-24T02:50:24.018Z,22.40
2022-08-24T02:52:52.404Z,22.60
2022-08-24T02:55:21.193Z,22.40
2022-08-24T02:57:52.662Z,22.30
2022-08-24T03:00:22.415Z,22.10
2022-08-24T03:02:56.151Z,22.10
2022-08-24T03:05:25.005Z,22.00
2022-08-24T03:07:53.883Z,22.00
2022-08-24T03:10:23.675Z,22.00
2022-08-24T03:12:52.256Z,21.90
2022-08-24T03:15:22.744Z,21.80
2022-08-24T03:17:51.529Z,21.80
2022-08-24T03:20:22.759Z,21.80
2022-08-24T03:22:51.784Z,21.80
2022-08-24T03:25:21.570Z,21.70
2022-08-24T03:27:49.877Z,21.60
2022-08-24T03:30:19.709Z,21.60
2022-08-24T03:32:50.139Z,21.60
2022-08-24T03:35:19.242Z,21.60
2022-08-24T03:37:49.434Z,21.60
2022-08-24T03:40:22.926Z,21.70
2022-08-24T03:42:56.253Z,21.70
2022-08-24T03:45:24.676Z,21.60
2022-08-24T03:47:53.248Z,21.60
2022-08-24T03:50:22.670Z,21.60
2022-08-24T03:52:52.879Z,21.80
2022-08-24T03:55:21.395Z,21.70
2022-08-24T03:57:49.493Z,21.70
2022-08-24T04:00:18.369Z,21.70
2022-08-24T04:02:55.339Z,21.50
2022-08-24T04:05:26.024Z,21.50
2022-08-24T04:07:55.629Z,21.50
2022-08-24T04:10:24.661Z,21.50
2022-08-24T04:13:01.523Z,21.40
2022-08-24T04:15:32.154Z,21.40
2022-08-24T04:18:00.426Z,21.40
2022-08-24T04:20:28.734Z,21.30
2022-08-24T04:22:58.801Z,21.30
2022-08-24T04:25:27.101Z,21.30
2022-08-24T04:27:55.240Z,21.20
2022-08-24T04:30:24.660Z,21.30
2022-08-24T04:33:14.865Z,21.40
2022-08-24T04:35:48.206Z,21.50
2022-08-24T04:38:20.170Z,21.40
2022-08-24T04:41:06.118Z,21.40
2022-08-24T04:43:35.737Z,21.40
2022-08-24T04:46:07.326Z,21.30
2022-08-24T04:48:36.106Z,21.30
2022-08-24T04:51:09.009Z,21.30
2022-08-24T04:53:41.480Z,21.30
2022-08-24T04:56:13.015Z,21.30
2022-08-24T04:58:41.896Z,21.20
2022-08-24T05:01:11.183Z,21.20
2022-08-24T05:03:39.603Z,21.20
2022-08-24T05:06:08.362Z,21.10
2022-08-24T05:08:36.643Z,21.10
2022-08-24T05:11:08.263Z,21.20
2022-08-24T05:13:39.158Z,21.20
2022-08-24T05:16:08.854Z,21.20
2022-08-24T05:18:37.862Z,21.30
2022-08-24T05:21:08.394Z,21.30
2022-08-24T05:23:37.246Z,21.30
2022-08-24T05:26:10.783Z,21.30
2022-08-24T05:28:39.975Z,21.30
2022-08-24T05:31:09.653Z,21.30
2022-08-24T05:33:39.123Z,21.40
2022-08-24T05:36:15.543Z,21.40
2022-08-24T05:38:43.686Z,21.50
2022-08-24T05:41:13.594Z,21.50
2022-08-24T05:43:43.506Z,21.50
2022-08-24T05:46:11.899Z,21.50
2022-08-24T05:48:40.144Z,21.50
2022-08-24T05:51:09.970Z,21.60
2022-08-24T05:53:47.197Z,21.60
2022-08-24T05:56:18.785Z,21.60
2022-08-24T05:58:47.933Z,21.70
2022-08-24T06:01:17.523Z,21.70
2022-08-24T06:03:46.286Z,21.70
2022-08-24T06:06:16.978Z,21.80
2022-08-24T06:08:48.059Z,21.80
2022-08-24T06:11:29.786Z,21.90
2022-08-24T06:14:02.523Z,22.00
2022-08-24T06:16:37.247Z,22.20
2022-08-24T06:19:06.851Z,22.40
2022-08-24T06:21:35.085Z,23.00
2022-08-24T06:24:03.482Z,23.40
2022-08-24T06:26:51.178Z,23.40
2022-08-24T06:29:20.026Z,23.40
2022-08-24T06:31:54.609Z,23.50
2022-08-24T06:34:26.037Z,23.50
2022-08-24T06:36:54.886Z,23.70
2022-08-24T06:39:25.062Z,23.80
2022-08-24T06:41:56.464Z,23.80
2022-08-24T06:44:31.880Z,23.80
2022-08-24T06:47:17.869Z,23.80
2022-08-24T06:49:46.081Z,23.80
2022-08-24T06:52:14.166Z,23.90
2022-08-24T06:54:43.086Z,24.00
2022-08-24T06:57:12.561Z,24.00
2022-08-24T06:59:43.044Z,23.90
2022-08-24T07:02:12.932Z,23.80
2022-08-24T07:04:41.249Z,23.80
2022-08-24T07:07:11.867Z,23.80
2022-08-24T07:09:40.368Z,23.80
2022-08-24T07:12:08.986Z,23.80
2022-08-24T07:14:39.675Z,23.80
2022-08-24T07:17:08.072Z,23.90
2022-08-24T07:19:36.620Z,23.90
2022-08-24T07:22:06.202Z,24.00
2022-08-24T07:24:34.502Z,24.00
2022-08-24T07:27:02.626Z,24.10
2022-08-24T07:29:47.355Z,24.20
2022-08-24T07:32:20.517Z,24.20
2022-08-24T07:34:50.591Z,24.20
2022-08-24T07:37:18.793Z,24.30
2022-08-24T07:39:49.965Z,24.30
2022-08-24T07:42:29.566Z,24.30
2022-08-24T07:45:01.096Z,24.30
2022-08-24T07:47:43.067Z,24.30
2022-08-24T07:50:41.973Z,24.40
2022-08-24T07:53:14.898Z,24.50
2022-08-24T07:55:52.607Z,24.60
2022-08-24T07:58:21.353Z,24.60
2022-08-24T08:00:50.082Z,24.70
2022-08-24T08:03:20.855Z,24.70
2022-08-24T08:05:49.540Z,24.80
2022-08-24T08:08:17.928Z,24.80
2022-08-24T08:10:46.667Z,24.80
2022-08-24T08:13:15.540Z,24.90
2022-08-24T08:15:44.130Z,25.00
2022-08-24T08:18:13.425Z,25.10
2022-08-24T08:20:44.374Z,25.10
2022-08-24T08:23:30.942Z,25.20
2022-08-24T08:26:08.392Z,25.20
2022-08-24T08:28:55.129Z,25.30
2022-08-24T08:31:24.895Z,25.30
2022-08-24T08:33:56.376Z,25.30
2022-08-24T08:36:26.911Z,25.30
2022-08-24T08:38:55.464Z,25.40
2022-08-24T08:42:05.249Z,25.40
2022-08-24T08:44:53.888Z,25.50
2022-08-24T08:47:43.844Z,25.60
2022-08-24T08:50:19.060Z,25.60
2022-08-24T08:53:15.008Z,25.60
2022-08-24T08:55:49.643Z,25.70
2022-08-24T08:58:40.853Z,25.70
2022-08-24T09:01:32.689Z,25.70
2022-08-24T09:04:39.349Z,25.90
2022-08-24T09:07:19.895Z,25.90
2022-08-24T09:10:12.635Z,26.00
2022-08-24T09:12:54.979Z,26.00
2022-08-24T09:15:58.747Z,26.10
2022-08-24T09:18:41.914Z,26.10
2022-08-24T09:21:26.751Z,26.10
2022-08-24T09:24:02.711Z,26.20
2022-08-24T09:26:40.809Z,26.30
2022-08-24T09:29:16.508Z,26.30
2022-08-24T09:32:04.414Z,26.50
2022-08-24T09:34:40.021Z,26.60
2022-08-24T09:37:31.529Z,26.70
2022-08-24T09:40:03.273Z,26.70
2022-08-24T09:43:06.294Z,26.80
2022-08-24T09:46:02.271Z,26.70
2022-08-24T09:48:56.121Z,26.70
2022-08-24T09:51:55.197Z,26.80
2022-08-24T09:54:52.831Z,26.90
2022-08-24T09:57:59.336Z,26.90
2022-08-24T10:00:31.381Z,27.00
2022-08-24T10:03:16.852Z,27.10
2022-08-24T10:06:02.150Z,27.20
2022-08-24T10:08:44.204Z,27.30
2022-08-24T10:11:22.199Z,27.40
2022-08-24T10:16:59.909Z,27.40
2022-08-24T10:19:48.940Z,27.30
2022-08-24T10:22:29.261Z,27.20
2022-08-24T10:25:24.995Z,27.30
2022-08-24T10:28:04.431Z,27.50
2022-08-24T10:30:55.069Z,27.70
2022-08-24T10:33:26.768Z,27.80
2022-08-24T10:36:30.262Z,27.90
2022-08-24T10:39:40.690Z,28.00
2022-08-24T10:42:56.863Z,28.10
2022-08-24T10:46:02.234Z,28.10
2022-08-24T10:49:09.089Z,28.10
2022-08-24T10:52:00.687Z,28.10
2022-08-24T10:54:29.752Z,28.20
2022-08-24T10:57:10.302Z,28.30
2022-08-24T10:59:49.924Z,28.40
2022-08-24T11:02:31.607Z,28.50
2022-08-24T11:05:01.761Z,28.70
2022-08-24T11:07:31.321Z,28.70
2022-08-24T11:10:02.511Z,28.60
2022-08-24T11:12:32.964Z,28.70
2022-08-24T11:15:03.313Z,28.70
2022-08-24T11:17:34.860Z,28.70
2022-08-24T11:20:26.334Z,28.80
2022-08-24T11:23:07.838Z,28.80
2022-08-24T11:25:40.340Z,28.90
2022-08-24T11:28:22.720Z,28.90
2022-08-24T11:30:51.151Z,28.90
2022-08-24T11:33:32.964Z,29.10
2022-08-24T11:36:03.071Z,29.20
2022-08-24T11:38:34.981Z,29.30
2022-08-24T11:41:08.568Z,29.40
2022-08-24T11:43:53.417Z,29.40
2022-08-24T11:46:32.888Z,29.40
2022-08-24T11:49:10.761Z,29.30
2022-08-24T11:51:50.555Z,29.30
2022-08-24T11:54:28.390Z,29.20
2022-08-24T11:57:11.100Z,29.20
2022-08-24T11:59:46.575Z,29.20
2022-08-24T12:02:20.608Z,29.20
2022-08-24T12:04:58.767Z,29.40
2022-08-24T12:07:44.827Z,29.60
2022-08-24T12:10:32.129Z,29.80
2022-08-24T12:13:06.367Z,29.80
2022-08-24T12:15:43.658Z,29.80
2022-08-24T12:18:22.050Z,29.90
2022-08-24T12:20:53.988Z,30.00
2022-08-24T12:23:28.904Z,30.10
2022-08-24T12:26:02.885Z,30.10
2022-08-24T12:28:36.594Z,30.20
2022-08-24T12:31:12.477Z,30.30
2022-08-24T12:33:44.847Z,30.30
2022-08-24T12:36:22.357Z,30.30
2022-08-24T12:39:02.148Z,30.40
2022-08-24T12:41:35.760Z,30.50
2022-08-24T12:44:11.746Z,30.70
2022-08-24T12:46:43.010Z,30.70
2022-08-24T12:49:19.353Z,30.90
2022-08-24T12:52:14.807Z,31.10
2022-08-24T12:55:22.086Z,31.30
2022-08-24T12:58:31.040Z,31.40
2022-08-24T13:00:53.909Z,31.60
2022-08-24T13:03:31.869Z,31.70
2022-08-24T13:06:03.343Z,31.80
2022-08-24T13:08:38.255Z,31.90
2022-08-24T13:11:13.949Z,32.00
2022-08-24T13:13:47.952Z,32.10
2022-08-24T13:16:45.671Z,32.30
2022-08-24T13:19:18.210Z,32.40
2022-08-24T13:21:55.949Z,32.30
2022-08-24T13:25:01.706Z,32.30
2022-08-24T13:28:08.892Z,32.60
2022-08-24T13:31:00.711Z,32.80
2022-08-24T13:33:34.988Z,33.00
2022-08-24T13:36:29.841Z,33.30
2022-08-24T13:39:09.391Z,33.60
2022-08-24T13:42:05.002Z,33.80
2022-08-24T13:44:50.840Z,34.10
2022-08-24T13:47:23.475Z,34.30
2022-08-24T13:50:04.013Z,34.40
2022-08-24T13:52:45.685Z,34.50
2022-08-24T13:55:37.134Z,34.50
2022-08-24T13:58:16.213Z,34.60
2022-08-24T14:00:50.075Z,34.70
2022-08-24T14:03:52.375Z,34.90
2022-08-24T14:06:28.771Z,35.00
2022-08-24T14:09:18.079Z,35.10
2022-08-24T14:12:01.988Z,35.00
2022-08-24T14:14:53.973Z,35.20
2022-08-24T14:17:52.825Z,35.20
2022-08-24T14:20:55.809Z,35.40
2022-08-24T14:23:48.140Z,35.40
2022-08-24T14:26:54.053Z,35.40
2022-08-24T14:29:42.161Z,35.40
2022-08-24T14:32:44.496Z,35.60
2022-08-24T14:35:37.349Z,35.70
2022-08-24T14:38:32.053Z,35.80
2022-08-24T14:41:11.509Z,36.00
2022-08-24T14:44:06.835Z,36.20
2022-08-24T14:46:44.698Z,36.70
2022-08-24T14:49:21.525Z,37.60
2022-08-24T14:52:40.874Z,38.70
2022-08-24T14:55:17.409Z,39.80
2022-08-24T14:58:28.906Z,40.60
2022-08-24T15:01:13.829Z,41.00
2022-08-24T15:04:04.082Z,40.50
2022-08-24T15:06:46.589Z,40.40
2022-08-24T15:09:26.584Z,41.40
2022-08-24T15:12:12.047Z,41.80
2022-08-24T15:14:47.929Z,42.70
2022-08-24T15:17:24.178Z,43.40
2022-08-24T15:20:01.420Z,43.50
2022-08-24T15:22:44.130Z,43.70
2022-08-24T15:25:19.924Z,43.80
2022-08-24T15:27:55.700Z,44.40
2022-08-24T15:30:27.390Z,43.80
2022-08-24T15:33:05.764Z,43.80
2022-08-24T15:35:37.745Z,44.00
2022-08-24T15:38:21.373Z,43.80
2022-08-24T15:40:52.651Z,42.70
2022-08-24T15:43:22.461Z,41.20
2022-08-24T15:45:53.087Z,39.70
2022-08-24T15:48:25.860Z,38.10
2022-08-24T15:50:57.323Z,37.10
2022-08-24T15:53:37.957Z,36.40
2022-08-24T15:56:35.302Z,35.60
2022-08-24T15:59:12.054Z,35.00
2022-08-24T16:01:57.835Z,34.70
2022-08-24T16:04:43.799Z,34.50
2022-08-24T16:07:23.934Z,34.20
2022-08-24T16:10:05.177Z,34.10
2022-08-24T16:12:33.829Z,33.90
2022-08-24T16:15:15.848Z,33.80
2022-08-24T16:17:51.266Z,33.50
2022-08-24T16:20:34.619Z,33.40
2022-08-24T16:23:07.517Z,33.30
2022-08-24T16:25:40.998Z,33.30
2022-08-24T16:28:13.907Z,33.20
2022-08-24T16:30:50.775Z,33.10
2022-08-24T16:33:43.329Z,33.10
2022-08-24T16:36:15.833Z,33.00
2022-08-24T16:38:50.153Z,33.00
2022-08-24T16:41:21.393Z,33.00
2022-08-24T16:43:50.448Z,32.90
2022-08-24T16:46:22.561Z,32.80
2022-08-24T16:48:51.553Z,32.80
2022-08-24T16:51:19.943Z,32.80
2022-08-24T16:53:49.734Z,32.80
2022-08-24T16:56:18.029Z,32.70
2022-08-24T16:58:48.224Z,32.60
2022-08-24T17:01:17.158Z,32.60
2022-08-24T17:03:45.520Z,32.60
2022-08-24T17:06:14.851Z,32.60
2022-08-24T17:08:43.572Z,32.60
2022-08-24T17:11:13.405Z,32.50
2022-08-24T17:13:50.498Z,32.50
2022-08-24T17:16:20.527Z,32.40
2022-08-24T17:18:49.624Z,32.40
2022-08-24T17:21:18.084Z,32.40
2022-08-24T17:23:47.110Z,32.40
2022-08-24T17:26:21.563Z,32.40
2022-08-24T17:28:52.325Z,32.30
2022-08-24T17:31:20.811Z,32.30
2022-08-24T17:33:49.259Z,32.30
2022-08-24T17:36:19.554Z,32.30
2022-08-24T17:38:55.218Z,32.20
2022-08-24T17:41:26.576Z,32.20
2022-08-24T17:43:55.511Z,32.20
2022-08-24T17:46:24.301Z,32.20
2022-08-24T17:48:52.995Z,32.10
2022-08-24T17:51:21.253Z,32.00
2022-08-24T17:53:49.573Z,32.00
2022-08-24T17:56:18.485Z,31.90
2022-08-24T17:59:05.433Z,31.80
2022-08-24T18:01:33.871Z,31.80
2022-08-24T18:04:02.351Z,31.70
2022-08-24T18:06:30.613Z,31.70
2022-08-24T18:09:03.821Z,31.60
2022-08-24T18:11:32.082Z,31.60
2022-08-24T18:14:02.435Z,31.50
2022-08-24T18:16:30.590Z,31.40
2022-08-24T18:18:59.666Z,31.30
2022-08-24T18:21:27.974Z,31.30
2022-08-24T18:23:56.078Z,31.20
2022-08-24T18:26:28.051Z,31.10
2022-08-24T18:29:00.302Z,31.10
2022-08-24T18:31:32.111Z,31.10
2022-08-24T18:34:00.248Z,31.00
2022-08-24T18:36:28.678Z,30.90
2022-08-24T18:38:56.996Z,30.90
2022-08-24T18:41:27.503Z,30.80
2022-08-24T18:43:55.903Z,30.80
2022-08-24T18:46:24.931Z,30.80
2022-08-24T18:48:54.517Z,30.70
2022-08-24T18:51:24.052Z,30.70
2022-08-24T18:54:02.864Z,30.60
2022-08-24T18:56:30.987Z,30.50
2022-08-24T18:58:59.183Z,30.50
2022-08-24T19:01:29.677Z,30.50
2022-08-24T19:03:59.578Z,30.40
2022-08-24T19:06:27.755Z,30.30
2022-08-24T19:08:55.883Z,30.20
2022-08-24T19:11:25.803Z,30.20
2022-08-24T19:13:53.938Z,30.10
2022-08-24T19:16:22.629Z,30.10
2022-08-24T19:18:52.075Z,30.00
2022-08-24T19:21:21.794Z,29.90
2022-08-24T19:23:50.065Z,29.80
2022-08-24T19:26:18.782Z,29.70
2022-08-24T19:28:47.083Z,29.70
2022-08-24T19:31:15.631Z,29.60
2022-08-24T19:33:46.733Z,29.50
2022-08-24T19:36:18.390Z,29.40
2022-08-24T19:38:47.906Z,29.40
2022-08-24T19:41:17.615Z,29.20
2022-08-24T19:44:21.197Z,29.20
2022-08-24T19:46:55.972Z,29.10
2022-08-24T19:49:24.771Z,29.10
2022-08-24T19:51:53.776Z,29.00
2022-08-24T19:54:24.509Z,28.90
2022-08-24T19:56:54.363Z,28.90
2022-08-24T19:59:28.052Z,28.80
2022-08-24T20:01:56.216Z,28.70
2022-08-24T20:04:24.404Z,28.70
2022-08-24T20:06:53.338Z,28.70
2022-08-24T20:09:23.646Z,28.70
2022-08-24T20:11:51.920Z,28.60
2022-08-24T20:14:20.091Z,28.60
2022-08-24T20:16:48.611Z,28.50
2022-08-24T20:19:16.764Z,28.50
2022-08-24T20:21:44.857Z,28.50
2022-08-24T20:24:12.912Z,28.40
2022-08-24T20:26:45.231Z,28.40
2022-08-24T20:29:15.126Z,28.30
2022-08-24T20:31:45.295Z,28.30
2022-08-24T20:34:13.672Z,28.20
2022-08-24T20:36:45.951Z,28.20
2022-08-24T20:39:15.295Z,28.10
2022-08-24T20:41:45.324Z,28.10
2022-08-24T20:44:13.598Z,28.10
2022-08-24T20:46:42.762Z,28.00
2022-08-24T20:49:16.906Z,28.00
2022-08-24T20:51:45.235Z,28.00
2022-08-24T20:54:14.661Z,27.90
2022-08-24T20:56:46.721Z,27.90
2022-08-24T20:59:16.497Z,27.80
2022-08-24T21:01:45.813Z,27.80
2022-08-24T21:04:14.412Z,27.70
2022-08-24T21:06:44.220Z,27.70
2022-08-24T21:09:14.325Z,27.70
2022-08-24T21:11:43.528Z,27.70
2022-08-24T21:14:13.716Z,27.70
2022-08-24T21:16:43.476Z,27.70
2022-08-24T21:19:17.706Z,27.60
2022-08-24T21:21:48.126Z,27.60
2022-08-24T21:24:17.018Z,27.60
2022-08-24T21:26:45.479Z,27.50
2022-08-24T21:29:15.116Z,27.50
2022-08-24T21:32:03.336Z,27.50
2022-08-24T21:34:42.597Z,27.40
2022-08-24T21:37:12.817Z,27.40
2022-08-24T21:39:40.981Z,27.40
2022-08-24T21:42:10.199Z,27.30
2022-08-24T21:44:40.227Z,27.30
2022-08-24T21:47:08.834Z,27.20
2022-08-24T21:49:36.923Z,27.20
2022-08-24T21:52:06.896Z,27.20
2022-08-24T21:54:36.187Z,27.20
2022-08-24T21:57:06.466Z,27.20
2022-08-24T21:59:35.190Z,27.10
2022-08-24T22:02:05.469Z,27.00
2022-08-24T22:04:33.803Z,27.00
2022-08-24T22:07:02.400Z,27.00
2022-08-24T22:09:30.743Z,26.90
2022-08-24T22:11:59.888Z,26.90
2022-08-24T22:14:28.018Z,26.80
2022-08-24T22:16:58.990Z,26.80
2022-08-24T22:19:28.517Z,26.70
2022-08-24T22:21:56.845Z,26.80
2022-08-24T22:24:24.995Z,26.80
2022-08-24T22:26:53.049Z,26.80
2022-08-24T22:29:21.095Z,26.80
2022-08-24T22:31:49.616Z,26.80
2022-08-24T22:34:20.732Z,26.80
2022-08-24T22:36:51.294Z,26.70
2022-08-24T22:39:19.950Z,26.60
2022-08-24T22:41:48.037Z,26.50
2022-08-24T22:44:22.054Z,26.40
2022-08-24T22:46:52.462Z,26.30
2022-08-24T22:49:23.275Z,26.20
2022-08-24T22:51:52.980Z,26.20
2022-08-24T22:54:23.309Z,26.20
2022-08-24T22:56:54.028Z,26.20
2022-08-24T22:59:24.247Z,26.20
2022-08-24T23:01:54.786Z,26.20
2022-08-24T23:04:25.358Z,26.20
2022-08-24T23:23:24.361Z,26.00
2022-08-24T23:25:52.476Z,26.00
2022-08-24T23:28:20.758Z,25.90
2022-08-24T23:30:48.961Z,26.00
2022-08-24T23:33:17.282Z,26.00
2022-08-24T23:35:45.489Z,26.00
2022-08-24T23:38:13.627Z,25.90
2022-08-24T23:40:44.254Z,25.80
2022-08-24T23:43:12.385Z,25.80
2022-08-24T23:45:41.414Z,25.80
2022-08-24T23:48:09.519Z,25.80
2022-08-24T23:50:37.959Z,25.80
2022-08-24T23:53:06.054Z,25.80
2022-08-24T23:55:34.413Z,25.80
2022-08-24T23:58:04.199Z,25.90
